createdAt,value
2018-01-14T00:00:45.134Z,0
2018-01-14T00:01:44.863Z,0
2018-01-14T00:02:45.091Z,0
2018-01-14T00:03:45.600Z,0
2018-01-14T00:04:45.293Z,0
2018-01-14T00:05:44.794Z,0
2018-01-14T00:06:45.061Z,0
2018-01-14T00:07:44.775Z,0
2018-01-14T00:08:45.025Z,0
2018-01-14T00:09:45.274Z,0
2018-01-14T00:10:45.252Z,0
2018-01-14T00:11:45.253Z,0
2018-01-14T00:12:44.480Z,0
2018-01-14T00:13:44.728Z,0
2018-01-14T00:14:47.676Z,0
2018-01-14T00:15:45.228Z,0
2018-01-14T00:16:45.259Z,0
2018-01-14T00:17:44.944Z,0
2018-01-14T00:18:44.930Z,0
2018-01-14T00:19:45.202Z,0
2018-01-14T00:20:44.676Z,0
2018-01-14T00:21:45.170Z,0
2018-01-14T00:22:44.919Z,0
2018-01-14T00:23:44.909Z,0
2018-01-14T00:24:44.399Z,0
2018-01-14T00:25:44.889Z,0
2018-01-14T00:26:45.137Z,0
2018-01-14T00:27:45.135Z,0
2018-01-14T00:28:45.100Z,0
2018-01-14T00:29:45.341Z,0
2018-01-14T00:30:45.428Z,0
2018-01-14T00:31:45.089Z,0
2018-01-14T00:32:44.817Z,0
2018-01-14T00:33:45.067Z,0
2018-01-14T00:34:44.836Z,0
2018-01-14T00:35:44.532Z,0
2018-01-14T00:36:45.045Z,0
2018-01-14T00:37:45.030Z,0
2018-01-14T00:38:45.010Z,0
2018-01-14T00:39:45.277Z,0
2018-01-14T00:40:44.766Z,0
2018-01-14T00:41:45.006Z,0
2018-01-14T00:42:44.724Z,0
2018-01-14T00:43:44.740Z,0
2018-01-14T00:44:44.979Z,0
2018-01-14T00:45:45.404Z,0
2018-01-14T00:46:44.947Z,0
2018-01-14T00:47:44.689Z,0
2018-01-14T00:48:44.936Z,0
2018-01-14T00:49:44.689Z,0
2018-01-14T00:50:44.927Z,0
2018-01-14T00:51:44.656Z,0
2018-01-14T00:52:44.920Z,0
2018-01-14T00:53:44.927Z,0
2018-01-14T00:54:44.647Z,0
2018-01-14T00:55:45.124Z,0
2018-01-14T00:56:44.694Z,0
2018-01-14T00:57:44.854Z,0
2018-01-14T00:58:44.846Z,0
2018-01-14T00:59:44.850Z,0
2018-01-14T01:00:48.854Z,0
2018-01-14T01:01:44.570Z,0
2018-01-14T01:02:45.081Z,0
2018-01-14T01:03:45.061Z,0
2018-01-14T01:04:44.561Z,0
2018-01-14T01:05:45.056Z,0
2018-01-14T01:06:44.781Z,0
2018-01-14T01:07:44.266Z,0
2018-01-14T01:08:44.547Z,0
2018-01-14T01:09:44.272Z,0
2018-01-14T01:10:45.007Z,0
2018-01-14T01:11:44.990Z,0
2018-01-14T01:12:44.479Z,0
2018-01-14T01:13:44.728Z,0
2018-01-14T01:14:44.707Z,0
2018-01-14T01:15:45.272Z,0
2018-01-14T01:16:44.943Z,0
2018-01-14T01:17:44.943Z,0
2018-01-14T01:18:44.434Z,0
2018-01-14T01:19:44.419Z,0
2018-01-14T01:20:44.403Z,0
2018-01-14T01:21:44.646Z,0
2018-01-14T01:22:44.392Z,0
2018-01-14T01:23:44.898Z,0
2018-01-14T01:24:44.666Z,0
2018-01-14T01:25:44.862Z,0
2018-01-14T01:26:44.608Z,0
2018-01-14T01:27:44.847Z,0
2018-01-14T01:28:44.341Z,0
2018-01-14T01:29:44.584Z,0
2018-01-14T01:30:44.830Z,0
2018-01-14T01:31:44.368Z,0
2018-01-14T01:32:44.560Z,0
2018-01-14T01:33:44.549Z,0
2018-01-14T01:34:44.536Z,0
2018-01-14T01:35:44.547Z,0
2018-01-14T01:36:44.533Z,0
2018-01-14T01:37:44.548Z,0
2018-01-14T01:38:44.310Z,0
2018-01-14T01:39:44.501Z,0
2018-01-14T01:40:44.238Z,0
2018-01-14T01:41:44.231Z,0
2018-01-14T01:42:44.491Z,0
2018-01-14T01:43:44.226Z,0
2018-01-14T01:44:44.463Z,0
2018-01-14T01:45:44.719Z,0
2018-01-14T01:46:48.689Z,0
2018-01-14T01:47:44.678Z,0
2018-01-14T01:48:44.669Z,0
2018-01-14T01:49:44.671Z,0
2018-01-14T01:50:44.160Z,0
2018-01-14T01:51:43.894Z,0
2018-01-14T01:52:44.461Z,0
2018-01-14T01:53:44.626Z,0
2018-01-14T01:54:44.378Z,0
2018-01-14T01:55:43.860Z,0
2018-01-14T01:56:43.846Z,0
2018-01-14T01:57:43.838Z,0
2018-01-14T01:58:44.336Z,0
2018-01-14T01:59:44.348Z,0
2018-01-14T02:00:44.094Z,0
2018-01-14T02:01:44.683Z,0
2018-01-14T02:02:44.326Z,0
2018-01-14T02:03:44.305Z,0
2018-01-14T02:04:44.041Z,0
2018-01-14T02:05:44.272Z,0
2018-01-14T02:06:44.021Z,0
2018-01-14T02:07:44.264Z,0
2018-01-14T02:08:44.015Z,0
2018-01-14T02:09:44.007Z,0
2018-01-14T02:10:43.990Z,0
2018-01-14T02:11:43.981Z,0
2018-01-14T02:12:43.968Z,0
2018-01-14T02:13:44.215Z,0
2018-01-14T02:14:43.961Z,0
2018-01-14T02:15:43.941Z,0
2018-01-14T02:16:46.087Z,0
2018-01-14T02:17:43.926Z,0
2018-01-14T02:18:44.416Z,0
2018-01-14T02:19:43.654Z,0
2018-01-14T02:20:43.910Z,0
2018-01-14T02:21:44.391Z,0
2018-01-14T02:22:44.151Z,0
2018-01-14T02:23:43.628Z,0
2018-01-14T02:24:44.133Z,0
2018-01-14T02:25:44.109Z,0
2018-01-14T02:26:43.854Z,0
2018-01-14T02:27:43.843Z,0
2018-01-14T02:28:43.830Z,0
2018-01-14T02:29:44.076Z,0
2018-01-14T02:30:43.813Z,0
2018-01-14T02:31:43.810Z,0
2018-01-14T02:32:46.765Z,0
2018-01-14T02:33:43.792Z,0
2018-01-14T02:34:44.029Z,0
2018-01-14T02:35:43.530Z,0
2018-01-14T02:36:44.269Z,0
2018-01-14T02:37:44.260Z,0
2018-01-14T02:38:44.009Z,0
2018-01-14T02:39:43.734Z,0
2018-01-14T02:40:43.494Z,0
2018-01-14T02:41:44.230Z,0
2018-01-14T02:42:44.225Z,0
2018-01-14T02:43:43.966Z,0
2018-01-14T02:44:43.953Z,0
2018-01-14T02:45:43.942Z,0
2018-01-14T02:46:43.441Z,0
2018-01-14T02:47:43.982Z,0
2018-01-14T02:48:43.917Z,0
2018-01-14T02:49:43.657Z,0
2018-01-14T02:50:43.652Z,0
2018-01-14T02:51:43.645Z,0
2018-01-14T02:52:43.891Z,0
2018-01-14T02:53:43.623Z,0
2018-01-14T02:54:43.875Z,0
2018-01-14T02:55:43.610Z,0
2018-01-14T02:56:44.102Z,0
2018-01-14T02:57:43.349Z,0
2018-01-14T02:58:43.589Z,0
2018-01-14T02:59:43.831Z,0
2018-01-14T03:00:44.069Z,0
2018-01-14T03:01:43.308Z,0
2018-01-14T03:02:44.117Z,0
2018-01-14T03:03:43.789Z,0
2018-01-14T03:04:43.835Z,0
2018-01-14T03:05:43.781Z,0
2018-01-14T03:06:43.505Z,0
2018-01-14T03:07:43.777Z,0
2018-01-14T03:08:43.494Z,0
2018-01-14T03:09:43.747Z,0
2018-01-14T03:10:43.739Z,0
2018-01-14T03:11:43.971Z,0
2018-01-14T03:12:43.976Z,0
2018-01-14T03:13:43.963Z,0
2018-01-14T03:14:43.436Z,0
2018-01-14T03:15:43.434Z,0
2018-01-14T03:16:43.678Z,0
2018-01-14T03:17:44.134Z,0
2018-01-14T03:18:43.665Z,0
2018-01-14T03:19:43.408Z,0
2018-01-14T03:20:43.391Z,0
2018-01-14T03:21:43.393Z,0
2018-01-14T03:22:43.368Z,0
2018-01-14T03:23:43.366Z,0
2018-01-14T03:24:43.856Z,0
2018-01-14T03:25:43.856Z,0
2018-01-14T03:26:43.603Z,0
2018-01-14T03:27:43.606Z,0
2018-01-14T03:28:43.575Z,0
2018-01-14T03:29:43.308Z,0
2018-01-14T03:30:43.818Z,0
2018-01-14T03:31:43.312Z,0
2018-01-14T03:32:43.313Z,0
2018-01-14T03:33:43.297Z,0
2018-01-14T03:34:43.529Z,0
2018-01-14T03:35:43.526Z,0
2018-01-14T03:36:43.270Z,0
2018-01-14T03:37:43.502Z,0
2018-01-14T03:38:43.246Z,0
2018-01-14T03:39:43.229Z,0
2018-01-14T03:40:43.222Z,0
2018-01-14T03:41:43.533Z,0
2018-01-14T03:42:43.028Z,0
2018-01-14T03:43:43.200Z,0
2018-01-14T03:44:43.438Z,0
2018-01-14T03:45:43.177Z,0
2018-01-14T03:46:43.435Z,0
2018-01-14T03:47:45.874Z,0
2018-01-14T03:48:43.409Z,0
2018-01-14T03:49:43.143Z,0
2018-01-14T03:50:43.146Z,0
2018-01-14T03:51:43.658Z,0
2018-01-14T03:52:43.377Z,0
2018-01-14T03:53:43.386Z,0
2018-01-14T03:54:43.603Z,0
2018-01-14T03:55:43.107Z,0
2018-01-14T03:56:42.855Z,0
2018-01-14T03:57:43.333Z,0
2018-01-14T03:58:43.071Z,0
2018-01-14T03:59:43.311Z,0
2018-01-14T04:00:43.068Z,0
2018-01-14T04:01:43.312Z,0
2018-01-14T04:02:43.539Z,0
2018-01-14T04:03:43.274Z,0
2018-01-14T04:04:42.788Z,0
2018-01-14T04:05:43.256Z,0
2018-01-14T04:06:43.276Z,0
2018-01-14T04:07:43.254Z,0
2018-01-14T04:08:42.759Z,0
2018-01-14T04:09:43.012Z,0
2018-01-14T04:10:42.993Z,0
2018-01-14T04:11:43.219Z,0
2018-01-14T04:12:43.464Z,0
2018-01-14T04:13:43.041Z,0
2018-01-14T04:14:43.437Z,0
2018-01-14T04:15:43.206Z,0
2018-01-14T04:16:43.178Z,0
2018-01-14T04:17:42.673Z,0
2018-01-14T04:18:44.281Z,0
2018-01-14T04:19:43.399Z,0
2018-01-14T04:20:43.139Z,0
2018-01-14T04:21:42.639Z,0
2018-01-14T04:22:43.138Z,0
2018-01-14T04:23:44.249Z,0
2018-01-14T04:24:42.867Z,0
2018-01-14T04:25:42.874Z,0
2018-01-14T04:26:43.147Z,0
2018-01-14T04:27:42.818Z,0
2018-01-14T04:28:43.316Z,0
2018-01-14T04:29:43.307Z,0
2018-01-14T04:30:42.541Z,0
2018-01-14T04:31:43.315Z,0
2018-01-14T04:32:43.022Z,0
2018-01-14T04:33:43.030Z,0
2018-01-14T04:34:43.025Z,0
2018-01-14T04:35:43.014Z,0
2018-01-14T04:36:43.022Z,0
2018-01-14T04:37:43.242Z,0
2018-01-14T04:38:42.723Z,0
2018-01-14T04:39:42.469Z,0
2018-01-14T04:40:42.725Z,0
2018-01-14T04:41:43.010Z,0
2018-01-14T04:42:42.693Z,0
2018-01-14T04:43:42.930Z,0
2018-01-14T04:44:42.991Z,0
2018-01-14T04:45:42.661Z,0
2018-01-14T04:46:42.657Z,0
2018-01-14T04:47:42.387Z,0
2018-01-14T04:48:44.230Z,0
2018-01-14T04:49:43.120Z,0
2018-01-14T04:50:42.860Z,0
2018-01-14T04:51:42.353Z,0
2018-01-14T04:52:42.842Z,0
2018-01-14T04:53:42.834Z,0
2018-01-14T04:54:42.846Z,0
2018-01-14T04:55:42.568Z,0
2018-01-14T04:56:42.315Z,0
2018-01-14T04:57:42.823Z,0
2018-01-14T04:58:42.829Z,0
2018-01-14T04:59:42.531Z,0
2018-01-14T05:00:42.787Z,0
2018-01-14T05:01:42.537Z,0
2018-01-14T05:02:43.029Z,0
2018-01-14T05:03:45.225Z,0
2018-01-14T05:04:42.238Z,0
2018-01-14T05:05:42.730Z,0
2018-01-14T05:06:42.536Z,0
2018-01-14T05:07:42.711Z,0
2018-01-14T05:08:42.985Z,0
2018-01-14T05:09:43.030Z,0
2018-01-14T05:10:42.688Z,0
2018-01-14T05:11:42.687Z,0
2018-01-14T05:12:42.432Z,0
2018-01-14T05:13:42.164Z,0
2018-01-14T05:14:42.655Z,0
2018-01-14T05:15:42.645Z,0
2018-01-14T05:16:42.390Z,0
2018-01-14T05:17:42.887Z,0
2018-01-14T05:18:42.875Z,0
2018-01-14T05:19:44.806Z,0
2018-01-14T05:20:42.663Z,0
2018-01-14T05:21:42.612Z,0
2018-01-14T05:22:42.324Z,0
2018-01-14T05:23:42.322Z,0
2018-01-14T05:24:42.562Z,0
2018-01-14T05:25:42.307Z,0
2018-01-14T05:26:42.304Z,0
2018-01-14T05:27:42.294Z,0
2018-01-14T05:28:42.284Z,0
2018-01-14T05:29:42.787Z,0
2018-01-14T05:30:42.285Z,0
2018-01-14T05:31:42.002Z,0
2018-01-14T05:32:42.743Z,0
2018-01-14T05:33:42.751Z,0
2018-01-14T05:34:42.228Z,0
2018-01-14T05:35:42.282Z,0
2018-01-14T05:36:42.572Z,0
2018-01-14T05:37:42.211Z,0
2018-01-14T05:38:42.443Z,0
2018-01-14T05:39:42.444Z,0
2018-01-14T05:40:42.421Z,0
2018-01-14T05:41:42.420Z,0
2018-01-14T05:42:42.679Z,0
2018-01-14T05:43:42.497Z,0
2018-01-14T05:44:42.642Z,0
2018-01-14T05:45:42.395Z,0
2018-01-14T05:46:42.367Z,0
2018-01-14T05:47:42.370Z,0
2018-01-14T05:48:42.365Z,0
2018-01-14T05:49:44.147Z,0
2018-01-14T05:50:42.084Z,0
2018-01-14T05:51:42.331Z,0
2018-01-14T05:52:42.337Z,0
2018-01-14T05:53:42.315Z,0
2018-01-14T05:54:42.341Z,0
2018-01-14T05:55:42.309Z,0
2018-01-14T05:56:42.300Z,0
2018-01-14T05:57:42.035Z,0
2018-01-14T05:58:42.520Z,0
2018-01-14T05:59:42.521Z,0
2018-01-14T06:00:42.260Z,0
2018-01-14T06:01:42.255Z,0
2018-01-14T06:02:41.996Z,0
2018-01-14T06:03:42.230Z,0
2018-01-14T06:04:42.266Z,0
2018-01-14T06:05:42.463Z,0
2018-01-14T06:06:42.226Z,0
2018-01-14T06:07:42.458Z,0
2018-01-14T06:08:42.188Z,0
2018-01-14T06:09:41.936Z,0
2018-01-14T06:10:41.661Z,0
2018-01-14T06:11:41.405Z,0
2018-01-14T06:12:41.901Z,0
2018-01-14T06:13:41.882Z,0
2018-01-14T06:14:41.886Z,0
2018-01-14T06:15:42.125Z,0
2018-01-14T06:16:42.368Z,0
2018-01-14T06:17:41.606Z,0
2018-01-14T06:18:41.838Z,0
2018-01-14T06:19:42.333Z,0
2018-01-14T06:20:42.108Z,0
2018-01-14T06:21:41.817Z,0
2018-01-14T06:22:42.142Z,0
2018-01-14T06:23:42.329Z,0
2018-01-14T06:24:42.069Z,0
2018-01-14T06:25:42.292Z,0
2018-01-14T06:26:41.783Z,0
2018-01-14T06:27:42.291Z,0
2018-01-14T06:28:41.758Z,0
2018-01-14T06:29:41.510Z,0
2018-01-14T06:30:42.264Z,0
2018-01-14T06:31:41.723Z,0
2018-01-14T06:32:41.729Z,0
2018-01-14T06:33:41.984Z,0
2018-01-14T06:34:42.559Z,0
2018-01-14T06:35:42.189Z,0
2018-01-14T06:36:41.453Z,0
2018-01-14T06:37:42.211Z,0
2018-01-14T06:38:41.668Z,0
2018-01-14T06:39:41.917Z,0
2018-01-14T06:40:41.406Z,0
2018-01-14T06:41:41.895Z,0
2018-01-14T06:42:41.894Z,0
2018-01-14T06:43:41.384Z,0
2018-01-14T06:44:42.119Z,0
2018-01-14T06:45:41.860Z,0
2018-01-14T06:46:41.849Z,0
2018-01-14T06:47:41.852Z,0
2018-01-14T06:48:41.622Z,0
2018-01-14T06:49:41.830Z,0
2018-01-14T06:50:43.077Z,0
2018-01-14T06:51:41.550Z,0
2018-01-14T06:52:41.799Z,0
2018-01-14T06:53:41.294Z,0
2018-01-14T06:54:41.558Z,0
2018-01-14T06:55:42.580Z,0
2018-01-14T06:56:41.508Z,0
2018-01-14T06:57:41.753Z,0
2018-01-14T06:58:41.771Z,0
2018-01-14T06:59:41.506Z,0
2018-01-14T07:00:41.479Z,0
2018-01-14T07:01:41.982Z,0
2018-01-14T07:02:41.482Z,0
2018-01-14T07:03:41.721Z,0
2018-01-14T07:04:41.437Z,0
2018-01-14T07:05:41.975Z,0
2018-01-14T07:06:41.674Z,0
2018-01-14T07:07:40.939Z,0
2018-01-14T07:08:41.404Z,0
2018-01-14T07:09:41.654Z,0
2018-01-14T07:10:41.886Z,0
2018-01-14T07:11:41.886Z,0
2018-01-14T07:12:41.105Z,0
2018-01-14T07:13:41.889Z,0
2018-01-14T07:14:41.363Z,0
2018-01-14T07:15:41.598Z,0
2018-01-14T07:16:41.349Z,0
2018-01-14T07:17:41.575Z,0
2018-01-14T07:18:41.359Z,0
2018-01-14T07:19:41.567Z,0
2018-01-14T07:20:45.199Z,0
2018-01-14T07:21:41.542Z,0
2018-01-14T07:22:41.528Z,0
2018-01-14T07:23:41.786Z,0
2018-01-14T07:24:41.763Z,0
2018-01-14T07:25:41.244Z,5
2018-01-14T07:26:41.495Z,5
2018-01-14T07:27:41.736Z,5
2018-01-14T07:28:41.217Z,5
2018-01-14T07:29:41.218Z,5
2018-01-14T07:30:41.309Z,5
2018-01-14T07:31:41.198Z,5
2018-01-14T07:32:41.682Z,5
2018-01-14T07:33:41.474Z,5
2018-01-14T07:34:41.159Z,5
2018-01-14T07:35:43.591Z,5
2018-01-14T07:36:40.928Z,5
2018-01-14T07:37:40.912Z,5
2018-01-14T07:38:41.637Z,10
2018-01-14T07:39:41.374Z,10
2018-01-14T07:40:41.356Z,10
2018-01-14T07:41:41.476Z,10
2018-01-14T07:42:41.358Z,10
2018-01-14T07:43:41.339Z,10
2018-01-14T07:44:41.324Z,10
2018-01-14T07:45:41.081Z,10
2018-01-14T07:46:41.315Z,10
2018-01-14T07:47:41.064Z,10
2018-01-14T07:48:41.302Z,10
2018-01-14T07:49:41.307Z,10
2018-01-14T07:50:41.526Z,10
2018-01-14T07:51:41.205Z,10
2018-01-14T07:52:41.260Z,10
2018-01-14T07:53:41.498Z,10
2018-01-14T07:54:41.007Z,10
2018-01-14T07:55:41.226Z,15
2018-01-14T07:56:41.007Z,15
2018-01-14T07:57:41.453Z,15
2018-01-14T07:58:41.466Z,15
2018-01-14T07:59:41.194Z,15
2018-01-14T08:00:41.449Z,15
2018-01-14T08:01:40.972Z,15
2018-01-14T08:02:41.177Z,15
2018-01-14T08:03:40.906Z,15
2018-01-14T08:04:40.908Z,15
2018-01-14T08:05:40.636Z,15
2018-01-14T08:06:41.924Z,15
2018-01-14T08:07:40.882Z,15
2018-01-14T08:08:40.910Z,15
2018-01-14T08:09:41.356Z,15
2018-01-14T08:10:40.860Z,20
2018-01-14T08:11:40.875Z,20
2018-01-14T08:12:40.582Z,20
2018-01-14T08:13:40.818Z,20
2018-01-14T08:14:40.563Z,20
2018-01-14T08:15:41.298Z,20
2018-01-14T08:16:40.814Z,20
2018-01-14T08:17:41.044Z,20
2018-01-14T08:18:40.794Z,20
2018-01-14T08:19:41.023Z,20
2018-01-14T08:20:41.295Z,20
2018-01-14T08:21:43.961Z,20
2018-01-14T08:22:41.021Z,20
2018-01-14T08:23:40.725Z,20
2018-01-14T08:24:40.986Z,25
2018-01-14T08:25:40.964Z,25
2018-01-14T08:26:40.710Z,25
2018-01-14T08:27:41.286Z,25
2018-01-14T08:28:40.684Z,25
2018-01-14T08:29:40.425Z,25
2018-01-14T08:30:40.950Z,25
2018-01-14T08:31:41.169Z,25
2018-01-14T08:32:40.381Z,30
2018-01-14T08:33:41.216Z,30
2018-01-14T08:34:41.130Z,30
2018-01-14T08:35:40.601Z,30
2018-01-14T08:37:12.469Z,30
2018-01-14T08:37:40.594Z,30
2018-01-14T08:38:40.846Z,30
2018-01-14T08:39:40.579Z,30
2018-01-14T08:40:41.075Z,30
2018-01-14T08:41:40.848Z,25
2018-01-14T08:42:40.291Z,30
2018-01-14T08:43:41.056Z,30
2018-01-14T08:44:40.784Z,30
2018-01-14T08:45:40.278Z,30
2018-01-14T08:46:40.263Z,30
2018-01-14T08:47:40.259Z,30
2018-01-14T08:48:40.498Z,30
2018-01-14T08:49:40.492Z,30
2018-01-14T08:50:40.484Z,30
2018-01-14T08:51:40.227Z,30
2018-01-14T08:52:45.028Z,30
2018-01-14T08:53:40.701Z,30
2018-01-14T08:54:40.204Z,30
2018-01-14T08:55:40.770Z,30
2018-01-14T08:56:40.431Z,30
2018-01-14T08:57:40.932Z,30
2018-01-14T08:58:40.409Z,30
2018-01-14T08:59:40.159Z,30
2018-01-14T09:00:40.485Z,30
2018-01-14T09:01:40.640Z,35
2018-01-14T09:02:40.628Z,35
2018-01-14T09:03:40.355Z,35
2018-01-14T09:04:40.874Z,35
2018-01-14T09:05:40.592Z,35
2018-01-14T09:06:40.341Z,35
2018-01-14T09:07:41.408Z,35
2018-01-14T09:08:40.836Z,35
2018-01-14T09:09:40.825Z,40
2018-01-14T09:10:40.301Z,40
2018-01-14T09:11:40.557Z,40
2018-01-14T09:12:40.799Z,40
2018-01-14T09:13:40.556Z,40
2018-01-14T09:14:40.020Z,40
2018-01-14T09:15:40.267Z,40
2018-01-14T09:16:40.248Z,40
2018-01-14T09:17:40.777Z,40
2018-01-14T09:18:39.988Z,40
2018-01-14T09:19:40.728Z,40
2018-01-14T09:20:40.755Z,45
2018-01-14T09:21:40.204Z,45
2018-01-14T09:22:41.971Z,45
2018-01-14T09:23:40.185Z,45
2018-01-14T09:24:40.194Z,45
2018-01-14T09:25:40.171Z,45
2018-01-14T09:26:40.188Z,45
2018-01-14T09:27:40.159Z,45
2018-01-14T09:28:40.399Z,45
2018-01-14T09:29:40.422Z,45
2018-01-14T09:30:40.133Z,45
2018-01-14T09:31:40.135Z,45
2018-01-14T09:32:40.120Z,45
2018-01-14T09:33:40.124Z,45
2018-01-14T09:34:40.352Z,45
2018-01-14T09:35:40.340Z,45
2018-01-14T09:36:40.584Z,40
2018-01-14T09:37:40.067Z,40
2018-01-14T09:38:40.314Z,40
2018-01-14T09:39:40.309Z,40
2018-01-14T09:40:40.557Z,40
2018-01-14T09:41:39.858Z,40
2018-01-14T09:42:40.296Z,40
2018-01-14T09:43:40.264Z,40
2018-01-14T09:44:40.271Z,40
2018-01-14T09:45:40.251Z,40
2018-01-14T09:46:39.999Z,40
2018-01-14T09:47:39.734Z,40
2018-01-14T09:48:39.983Z,40
2018-01-14T09:49:39.711Z,40
2018-01-14T09:50:39.956Z,40
2018-01-14T09:51:39.947Z,40
2018-01-14T09:52:39.689Z,40
2018-01-14T09:53:41.540Z,40
2018-01-14T09:54:40.192Z,40
2018-01-14T09:55:39.676Z,40
2018-01-14T09:56:39.904Z,40
2018-01-14T09:57:39.653Z,40
2018-01-14T09:58:40.149Z,40
2018-01-14T09:59:39.885Z,40
2018-01-14T10:00:39.884Z,40
2018-01-14T10:01:39.860Z,40
2018-01-14T10:02:39.859Z,40
2018-01-14T10:03:40.134Z,40
2018-01-14T10:04:40.351Z,40
2018-01-14T10:05:40.079Z,40
2018-01-14T10:06:39.826Z,45
2018-01-14T10:07:39.819Z,45
2018-01-14T10:08:42.374Z,45
2018-01-14T10:09:40.048Z,45
2018-01-14T10:10:40.038Z,45
2018-01-14T10:11:39.299Z,45
2018-01-14T10:12:39.532Z,45
2018-01-14T10:13:39.516Z,45
2018-01-14T10:14:40.265Z,45
2018-01-14T10:15:39.495Z,45
2018-01-14T10:16:39.986Z,45
2018-01-14T10:17:39.983Z,45
2018-01-14T10:18:39.728Z,45
2018-01-14T10:19:39.961Z,45
2018-01-14T10:20:39.980Z,45
2018-01-14T10:21:39.948Z,45
2018-01-14T10:22:39.697Z,50
2018-01-14T10:53:02.443Z,50
2018-01-14T10:54:02.697Z,55
2018-01-14T10:55:02.913Z,55
2018-01-14T10:56:02.383Z,55
2018-01-14T10:57:02.591Z,55
2018-01-14T10:58:02.339Z,55
2018-01-14T10:59:02.321Z,55
2018-01-14T11:00:02.056Z,55
2018-01-14T11:01:02.073Z,55
2018-01-14T11:02:02.283Z,55
2018-01-14T11:03:02.778Z,50
2018-01-14T11:04:02.520Z,50
2018-01-14T11:05:02.262Z,55
2018-01-14T11:06:02.500Z,55
2018-01-14T11:07:02.745Z,55
2018-01-14T11:08:02.775Z,55
2018-01-14T11:09:04.699Z,55
2018-01-14T11:10:02.461Z,55
2018-01-14T11:11:01.698Z,55
2018-01-14T11:12:01.941Z,55
2018-01-14T11:13:02.186Z,55
2018-01-14T11:14:02.177Z,55
2018-01-14T11:15:02.670Z,55
2018-01-14T11:16:02.416Z,55
2018-01-14T11:17:02.151Z,55
2018-01-14T11:18:02.157Z,55
2018-01-14T11:19:02.634Z,60
2018-01-14T11:20:01.864Z,60
2018-01-14T11:21:02.374Z,60
2018-01-14T11:22:02.607Z,60
2018-01-14T11:23:02.199Z,60
2018-01-14T11:24:02.092Z,60
2018-01-14T11:25:02.091Z,60
2018-01-14T11:26:02.075Z,60
2018-01-14T11:27:02.064Z,60
2018-01-14T11:28:02.311Z,60
2018-01-14T11:29:02.045Z,60
2018-01-14T11:30:01.796Z,60
2018-01-14T11:31:02.280Z,60
2018-01-14T11:32:02.328Z,60
2018-01-14T11:33:02.010Z,60
2018-01-14T11:34:02.005Z,60
2018-01-14T11:35:02.014Z,60
2018-01-14T11:36:01.988Z,60
2018-01-14T11:37:01.738Z,60
2018-01-14T11:38:02.220Z,60
2018-01-14T11:39:01.995Z,60
2018-01-14T11:40:01.964Z,65
2018-01-14T11:41:02.458Z,65
2018-01-14T11:42:01.704Z,65
2018-01-14T11:43:02.445Z,70
2018-01-14T11:44:02.179Z,70
2018-01-14T11:45:01.915Z,70
2018-01-14T11:46:01.656Z,75
2018-01-14T11:47:01.656Z,75
2018-01-14T11:48:02.043Z,75
2018-01-14T11:49:01.665Z,80
2018-01-14T11:50:01.625Z,80
2018-01-14T11:51:01.630Z,80
2018-01-14T11:52:02.166Z,80
2018-01-14T11:53:01.916Z,80
2018-01-14T11:54:01.853Z,85
2018-01-14T11:55:02.343Z,85
2018-01-14T11:56:01.341Z,85
2018-01-14T11:57:01.866Z,85
2018-01-14T11:58:01.858Z,80
2018-01-14T11:59:01.593Z,85
2018-01-14T12:00:02.392Z,85
2018-01-14T12:01:01.543Z,85
2018-01-14T12:02:01.785Z,90
2018-01-14T12:03:01.816Z,90
2018-01-14T12:04:02.049Z,85
2018-01-14T12:05:02.030Z,85
2018-01-14T12:06:01.529Z,85
2018-01-14T12:07:01.509Z,85
2018-01-14T12:08:01.838Z,80
2018-01-14T12:09:01.760Z,80
2018-01-14T12:10:02.037Z,75
2018-01-14T12:11:01.989Z,70
2018-01-14T12:12:01.715Z,70
2018-01-14T12:13:01.719Z,70
2018-01-14T12:14:01.449Z,65
2018-01-14T12:15:01.698Z,65
2018-01-14T12:16:01.932Z,65
2018-01-14T12:17:01.483Z,65
2018-01-14T12:18:01.447Z,60
2018-01-14T12:19:01.670Z,60
2018-01-14T12:20:01.408Z,60
2018-01-14T12:21:01.913Z,55
2018-01-14T12:22:01.663Z,55
2018-01-14T12:23:01.948Z,55
2018-01-14T12:24:01.728Z,50
2018-01-14T12:25:01.380Z,50
2018-01-14T12:26:01.700Z,50
2018-01-14T12:27:01.411Z,50
2018-01-14T12:28:01.672Z,50
2018-01-14T12:29:01.375Z,50
2018-01-14T12:30:01.417Z,50
2018-01-14T12:31:01.660Z,50
2018-01-14T12:32:01.575Z,50
2018-01-14T12:33:01.571Z,50
2018-01-14T12:34:01.627Z,50
2018-01-14T12:35:01.806Z,55
2018-01-14T12:36:01.551Z,55
2018-01-14T12:37:01.288Z,55
2018-01-14T12:38:04.641Z,55
2018-01-14T12:39:01.517Z,50
2018-01-14T12:40:01.755Z,50
2018-01-14T12:41:01.494Z,50
2018-01-14T12:42:01.601Z,50
2018-01-14T12:43:01.491Z,50
2018-01-14T12:44:02.619Z,50
2018-01-14T12:45:01.641Z,50
2018-01-14T12:46:01.457Z,50
2018-01-14T12:47:01.791Z,50
2018-01-14T12:48:01.680Z,50
2018-01-14T12:49:02.155Z,50
2018-01-14T12:50:02.261Z,50
2018-01-14T12:51:02.254Z,50
2018-01-14T12:52:01.750Z,50
2018-01-14T12:53:01.371Z,50
2018-01-14T12:54:01.435Z,50
2018-01-14T12:55:01.420Z,50
2018-01-14T12:56:01.039Z,50
2018-01-14T12:57:01.585Z,50
2018-01-14T12:58:01.614Z,50
2018-01-14T12:59:01.896Z,50
2018-01-14T13:00:01.340Z,50
2018-01-14T13:01:01.975Z,50
2018-01-14T13:02:01.580Z,50
2018-01-14T13:03:01.584Z,50
2018-01-14T13:04:01.543Z,50
2018-01-14T13:05:01.546Z,50
2018-01-14T13:06:01.325Z,50
2018-01-14T13:07:01.240Z,50
2018-01-14T13:08:01.610Z,50
2018-01-14T13:09:05.592Z,50
2018-01-14T13:10:01.458Z,50
2018-01-14T13:11:01.958Z,50
2018-01-14T13:12:00.925Z,55
2018-01-14T13:13:01.148Z,55
2018-01-14T13:14:01.587Z,55
2018-01-14T13:15:01.261Z,55
2018-01-14T13:16:01.511Z,60
2018-01-14T13:17:01.204Z,60
2018-01-14T13:18:01.483Z,65
2018-01-14T13:19:02.257Z,65
2018-01-14T13:20:01.463Z,70
2018-01-14T13:21:00.943Z,70
2018-01-14T13:22:01.000Z,70
2018-01-14T13:23:01.400Z,70
2018-01-14T13:24:01.564Z,70
2018-01-14T13:25:00.904Z,65
2018-01-14T13:26:01.147Z,65
2018-01-14T13:27:01.155Z,60
2018-01-14T13:28:01.146Z,60
2018-01-14T13:29:01.139Z,55
2018-01-14T13:30:01.099Z,55
2018-01-14T13:31:01.605Z,55
2018-01-14T13:32:01.095Z,60
2018-01-14T13:33:01.622Z,60
2018-01-14T13:34:01.569Z,60
2018-01-14T13:35:00.805Z,60
2018-01-14T13:36:01.319Z,60
2018-01-14T13:37:01.063Z,60
2018-01-14T13:38:01.048Z,60
2018-01-14T13:39:01.044Z,60
2018-01-14T13:40:03.964Z,65
2018-01-14T13:41:00.830Z,65
2018-01-14T13:42:01.431Z,65
2018-01-14T13:43:01.280Z,65
2018-01-14T13:44:01.007Z,65
2018-01-14T13:45:00.491Z,65
2018-01-14T13:46:01.266Z,65
2018-01-14T13:47:01.008Z,65
2018-01-14T13:48:01.479Z,70
2018-01-14T13:49:00.753Z,70
2018-01-14T13:50:00.985Z,70
2018-01-14T13:51:01.217Z,75
2018-01-14T13:52:00.970Z,75
2018-01-14T13:53:00.432Z,80
2018-01-14T13:54:00.676Z,80
2018-01-14T13:55:01.405Z,80
2018-01-14T13:56:00.908Z,80
2018-01-14T13:57:00.681Z,80
2018-01-14T13:58:01.158Z,80
2018-01-14T13:59:00.892Z,80
2018-01-14T14:00:00.885Z,80
2018-01-14T14:01:00.636Z,75
2018-01-14T14:02:01.122Z,75
2018-01-14T14:03:01.387Z,75
2018-01-14T14:04:00.602Z,75
2018-01-14T14:05:00.575Z,75
2018-01-14T14:06:01.105Z,75
2018-01-14T14:07:01.069Z,75
2018-01-14T14:08:00.605Z,75
2018-01-14T14:09:00.823Z,75
2018-01-14T14:10:02.722Z,70
2018-01-14T14:11:00.819Z,70
2018-01-14T14:12:00.788Z,70
2018-01-14T14:13:00.783Z,65
2018-01-14T14:14:01.290Z,65
2018-01-14T14:15:01.002Z,65
2018-01-14T14:16:00.766Z,65
2018-01-14T14:17:00.742Z,60
2018-01-14T14:18:00.764Z,60
2018-01-14T14:19:01.016Z,60
2018-01-14T14:20:00.756Z,55
2018-01-14T14:21:01.250Z,55
2018-01-14T14:22:00.453Z,55
2018-01-14T14:23:00.483Z,55
2018-01-14T14:24:00.214Z,55
2018-01-14T14:25:00.678Z,55
2018-01-14T14:26:00.689Z,55
2018-01-14T14:27:00.441Z,55
2018-01-14T14:28:01.174Z,50
2018-01-14T14:29:00.716Z,50
2018-01-14T14:30:00.678Z,50
2018-01-14T14:31:00.941Z,50
2018-01-14T14:32:00.641Z,50
2018-01-14T14:33:00.403Z,50
2018-01-14T14:34:00.383Z,50
2018-01-14T14:35:00.848Z,50
2018-01-14T14:36:00.596Z,50
2018-01-14T14:37:00.590Z,50
2018-01-14T14:38:00.580Z,45
2018-01-14T14:39:00.571Z,45
2018-01-14T14:40:01.271Z,45
2018-01-14T14:41:00.135Z,45
2018-01-14T14:42:00.842Z,45
2018-01-14T14:43:00.825Z,45
2018-01-14T14:44:00.279Z,45
2018-01-14T14:45:00.604Z,45
2018-01-14T14:46:00.670Z,40
2018-01-14T14:47:00.298Z,40
2018-01-14T14:48:01.032Z,40
2018-01-14T14:49:00.784Z,40
2018-01-14T14:50:00.760Z,40
2018-01-14T14:51:00.480Z,40
2018-01-14T14:52:00.501Z,40
2018-01-14T14:53:00.465Z,40
2018-01-14T14:54:00.721Z,40
2018-01-14T14:55:00.939Z,40
2018-01-14T14:56:00.199Z,40
2018-01-14T14:57:00.685Z,40
2018-01-14T14:57:59.943Z,40
2018-01-14T14:59:00.768Z,35
2018-01-14T15:00:00.233Z,35
2018-01-14T15:01:00.663Z,35